Etusivu
METAR-TAF:

METAR-TAF

Lentoasemat :

Kristiansund, Norja

Leveyspiiri: 63-07N, Pituuspiiri: 007-50E, korkeus merenpinnasta: 6 m

Tämänhetkinen sää

Tämä raportti tehtiin 34 minuuttia sitten, kello 14.20 UTC
Tuuli 6 kn idästä
Lämpötila 2°C
Kosteus 64%
Ilmanpaine 980 hPa
Näkyvyys 10 km tai enemmän
ei pilviä alle 1500 m:ssä eikä cumulonimbus-pilviä

METAR: ENKB 131420Z 10006KT CAVOK 02/M04 Q0980 RMK WIND 745FT 13013KT

Aika: 15:54 (14:54 UTC)

Sääennuste

Tämä raportti tehtiin 54 minuuttia sitten, kello 14.00 UTC
Ennuste voimassa 13. päivästä klo 15 UTC - 13. päivään klo 22 UTC
Tuuli 8 kn idästä/kaakosta
Näkyvyys 10 km tai enemmän
Muutamia pilviä 1800 ft:n korkeudessa
Hajonneita pilviä 4000 ft:n korkeudessa
Todennäköisyys 30% :
Ajoittain
13. päivästä klo 16 UTC - 13. päivään klo 22 UTC
Näkyvyys: 3000 m
1000 ft:n korkeudessa
heikkoa lumisadetta

TAF: ENKB 131400Z 1315/1322 12008KT 9999 FEW018 BKN040 PROB30 TEMPO 1316/1322 3000 -SN VV010

Säähavainnot ja -ennusteet yli 4000 lentoasemalta (METAR- ja TAF-raportit).

Käytössä olevat sääasemat on merkitty karttaan keltaisilla ja punaisilla pisteillä.

Aseta hiiri pisteen päälle nähdäksesi sääaseman nimen.

Klikkaa sitten nähdäksesi säähavainnot ja -ennusteet.

Kartan vaihtaminen: klikkaa mustalla rastilla varustettuja vihreitä pisteitä, niin voit zoomata sisään; viivalla varustettua vihreää pistettä, niin voit zoomata ulos tai vihreitä nuolia, niin pääset viereisille kartoille.


METAR-TAF: